createdAt,value
2019-03-03T00:00:01.802Z,143.93
2019-03-03T00:02:29.270Z,136.77
2019-03-03T00:04:56.753Z,144.10
2019-03-03T00:07:24.159Z,143.73
2019-03-03T00:09:51.758Z,138.17
2019-03-03T00:12:19.077Z,134.37
2019-03-03T00:14:46.511Z,145.97
2019-03-03T00:17:14.039Z,133.50
2019-03-03T00:19:41.506Z,139.57
2019-03-03T00:22:08.958Z,144.83
2019-03-03T00:24:36.362Z,162.50
2019-03-03T00:27:03.724Z,154.03
2019-03-03T00:29:31.217Z,139.40
2019-03-03T00:31:58.575Z,150.10
2019-03-03T00:34:25.924Z,146.13
2019-03-03T00:37:12.892Z,141.83
2019-03-03T00:39:41.908Z,142.20
2019-03-03T00:42:11.183Z,140.23
2019-03-03T00:44:42.782Z,145.63
2019-03-03T00:47:27.052Z,146.70
2019-03-03T00:50:12.691Z,142.23
2019-03-03T00:52:41.693Z,144.10
2019-03-03T00:55:10.682Z,151.00
2019-03-03T00:57:54.560Z,133.33
2019-03-03T01:00:25.149Z,139.73
2019-03-03T01:02:54.138Z,143.67
2019-03-03T01:05:23.140Z,137.47
2019-03-03T01:07:52.172Z,138.73
2019-03-03T01:10:23.937Z,135.67
2019-03-03T01:12:52.921Z,134.80
2019-03-03T01:15:27.798Z,138.93
2019-03-03T01:17:59.757Z,134.90
2019-03-03T01:20:31.636Z,138.00
2019-03-03T01:23:00.612Z,130.20
2019-03-03T01:25:27.957Z,136.97
2019-03-03T01:27:55.305Z,133.17
2019-03-03T01:30:22.805Z,132.03
2019-03-03T01:32:50.183Z,130.67
2019-03-03T01:35:17.579Z,134.03
2019-03-03T01:37:44.963Z,131.23
2019-03-03T01:40:12.291Z,136.57
2019-03-03T01:42:39.750Z,143.27
2019-03-03T01:45:11.288Z,138.00
2019-03-03T01:47:38.655Z,136.73
2019-03-03T01:50:07.778Z,137.03
2019-03-03T01:52:35.121Z,127.60
2019-03-03T01:55:02.616Z,119.67
2019-03-03T01:57:30.010Z,105.87
2019-03-03T01:59:57.371Z,104.87
2019-03-03T02:02:24.777Z,105.43
2019-03-03T02:04:52.124Z,95.37
2019-03-03T02:07:19.451Z,81.90
2019-03-03T02:09:47.150Z,91.47
2019-03-03T02:12:14.493Z,81.60
2019-03-03T02:14:42.009Z,86.50
2019-03-03T02:17:09.935Z,73.77
2019-03-03T02:19:37.305Z,79.40
2019-03-03T02:22:04.791Z,80.20
2019-03-03T02:24:32.168Z,74.90
2019-03-03T02:26:59.571Z,76.70
2019-03-03T02:29:27.037Z,69.17
2019-03-03T02:31:54.525Z,71.83
2019-03-03T02:34:21.855Z,69.80
2019-03-03T02:36:49.340Z,68.53
2019-03-03T02:39:16.743Z,69.27
2019-03-03T02:41:44.145Z,62.33
2019-03-03T02:44:11.494Z,62.67
2019-03-03T02:46:38.899Z,65.37
2019-03-03T02:49:06.307Z,66.73
2019-03-03T02:51:33.765Z,60.27
2019-03-03T02:54:01.202Z,68.47
2019-03-03T02:56:28.626Z,75.83
2019-03-03T02:58:55.965Z,76.43
2019-03-03T03:01:28.102Z,78.30
2019-03-03T03:03:55.434Z,84.03
2019-03-03T03:06:24.482Z,75.53
2019-03-03T03:09:08.606Z,74.37
2019-03-03T03:14:21.214Z,72.57
2019-03-03T03:17:02.479Z,79.23
2019-03-03T03:19:31.452Z,75.17
2019-03-03T03:22:06.239Z,74.03
2019-03-03T03:24:47.087Z,67.30
2019-03-03T03:27:22.018Z,67.33
2019-03-03T03:30:07.518Z,63.57
2019-03-03T03:32:39.473Z,68.83
2019-03-03T03:35:17.782Z,62.63
2019-03-03T03:38:01.902Z,67.27
2019-03-03T03:40:33.713Z,65.63
2019-03-03T03:43:18.780Z,65.87
2019-03-03T03:46:02.866Z,58.60
2019-03-03T03:48:48.002Z,64.90
2019-03-03T03:51:26.058Z,60.70
2019-03-03T03:53:55.049Z,59.53
2019-03-03T03:56:26.849Z,59.80
2019-03-03T03:58:55.863Z,63.53
2019-03-03T04:01:27.625Z,58.90
2019-03-03T04:03:56.661Z,62.17
2019-03-03T04:06:37.951Z,60.07
2019-03-03T04:09:10.733Z,54.43
2019-03-03T04:11:39.757Z,58.03
2019-03-03T04:14:08.812Z,63.70
2019-03-03T04:16:37.798Z,55.20
2019-03-03T04:19:09.515Z,56.80
2019-03-03T04:21:38.894Z,56.67
2019-03-03T04:24:25.830Z,48.70
2019-03-03T04:27:00.666Z,55.47
2019-03-03T04:29:29.674Z,56.90
2019-03-03T04:31:58.760Z,54.87
2019-03-03T04:34:27.748Z,51.20
2019-03-03T04:37:13.273Z,58.60
2019-03-03T04:39:42.268Z,62.47
2019-03-03T04:42:16.915Z,52.20
2019-03-03T04:44:45.907Z,58.27
2019-03-03T04:47:17.956Z,60.03
2019-03-03T04:49:49.824Z,55.43
2019-03-03T04:52:21.594Z,52.30
2019-03-03T04:55:06.882Z,52.20
2019-03-03T04:57:38.661Z,58.33
2019-03-03T05:00:14.816Z,59.57
2019-03-03T05:02:43.793Z,62.60
2019-03-03T05:05:12.827Z,55.97
2019-03-03T05:07:53.971Z,54.90
2019-03-03T05:10:32.337Z,58.23
2019-03-03T05:13:04.210Z,65.13
2019-03-03T05:15:33.332Z,63.83
2019-03-03T05:18:08.038Z,72.27
2019-03-03T05:20:48.772Z,65.00
2019-03-03T05:23:16.192Z,57.97
2019-03-03T05:25:43.586Z,57.57
2019-03-03T05:28:11.008Z,54.80
2019-03-03T05:30:38.440Z,56.97
2019-03-03T05:33:05.972Z,54.20
2019-03-03T05:35:33.397Z,58.73
2019-03-03T05:38:00.824Z,51.70
2019-03-03T05:40:28.351Z,49.90
2019-03-03T05:42:55.753Z,52.03
2019-03-03T05:45:23.083Z,47.23
2019-03-03T05:47:50.461Z,47.77
2019-03-03T05:50:18.094Z,48.23
2019-03-03T05:52:45.474Z,44.73
2019-03-03T05:55:12.952Z,51.77
2019-03-03T05:57:40.383Z,50.97
2019-03-03T06:00:12.453Z,62.60
2019-03-03T06:02:39.813Z,58.70
2019-03-03T06:05:07.211Z,62.43
2019-03-03T06:07:34.635Z,59.37
2019-03-03T06:10:02.076Z,71.87
2019-03-03T06:12:29.489Z,68.93
2019-03-03T06:14:56.932Z,63.30
2019-03-03T06:17:24.274Z,60.90
2019-03-03T06:19:51.770Z,64.60
2019-03-03T06:22:21.140Z,62.23
2019-03-03T06:24:48.619Z,63.63
2019-03-03T06:27:23.953Z,67.07
2019-03-03T06:29:50.989Z,65.27
2019-03-03T06:32:19.553Z,71.33
2019-03-03T06:34:50.301Z,71.40
2019-03-03T06:37:17.656Z,71.27
2019-03-03T06:39:45.039Z,65.67
2019-03-03T06:42:12.493Z,69.10
2019-03-03T06:44:39.849Z,74.57
2019-03-03T06:47:07.221Z,69.57
2019-03-03T06:49:34.663Z,77.63
2019-03-03T06:52:02.194Z,69.17
2019-03-03T06:54:29.625Z,67.07
2019-03-03T06:56:56.964Z,74.00
2019-03-03T06:59:24.447Z,77.13
2019-03-03T07:01:52.009Z,71.43
2019-03-03T07:04:19.498Z,68.40
2019-03-03T07:06:46.998Z,71.90
2019-03-03T07:09:14.554Z,66.80
2019-03-03T07:11:41.911Z,65.87
2019-03-03T07:14:09.328Z,68.10
2019-03-03T07:16:36.759Z,62.20
2019-03-03T07:19:04.247Z,65.90
2019-03-03T07:21:31.798Z,58.97
2019-03-03T07:23:59.264Z,60.97
2019-03-03T07:26:26.965Z,60.40
2019-03-03T07:28:54.470Z,63.03
2019-03-03T07:31:21.911Z,56.30
2019-03-03T07:33:50.701Z,58.40
2019-03-03T07:36:18.208Z,59.93
2019-03-03T07:38:45.656Z,54.13
2019-03-03T07:41:13.172Z,55.87
2019-03-03T07:43:40.857Z,61.27
2019-03-03T07:46:08.238Z,58.67
2019-03-03T07:48:38.371Z,58.60
2019-03-03T07:51:05.823Z,55.57
2019-03-03T07:53:33.367Z,54.80
2019-03-03T07:56:00.781Z,53.20
2019-03-03T07:58:28.344Z,51.13
2019-03-03T08:00:55.918Z,57.07
2019-03-03T08:03:23.355Z,57.57
2019-03-03T08:05:50.777Z,54.47
2019-03-03T08:08:18.587Z,51.57
2019-03-03T08:10:45.995Z,56.70
2019-03-03T08:13:13.478Z,57.83
2019-03-03T08:15:40.907Z,56.57
2019-03-03T08:18:08.449Z,50.43
2019-03-03T08:20:36.283Z,50.53
2019-03-03T08:23:04.313Z,48.27
2019-03-03T08:25:31.702Z,47.17
2019-03-03T08:28:01.895Z,46.97
2019-03-03T08:30:30.968Z,45.63
2019-03-03T08:32:59.605Z,48.70
2019-03-03T08:35:28.443Z,47.33
2019-03-03T08:37:55.863Z,49.60
2019-03-03T08:40:23.272Z,49.60
2019-03-03T08:42:55.292Z,47.00
2019-03-03T08:45:27.079Z,47.97
2019-03-03T08:47:58.591Z,46.43
2019-03-03T08:50:30.430Z,43.40
2019-03-03T08:53:05.494Z,50.50
2019-03-03T08:55:34.602Z,44.53
2019-03-03T08:58:15.564Z,45.33
2019-03-03T09:00:44.934Z,48.37
2019-03-03T09:03:13.884Z,47.47
2019-03-03T09:05:48.702Z,44.87
2019-03-03T09:08:20.445Z,50.73
2019-03-03T09:10:52.343Z,46.00
2019-03-03T09:13:30.728Z,43.60
2019-03-03T09:16:16.343Z,43.67
2019-03-03T09:18:47.872Z,40.20
2019-03-03T09:21:33.417Z,43.13
2019-03-03T09:24:02.652Z,39.40
2019-03-03T09:26:34.859Z,40.00
2019-03-03T09:29:16.210Z,41.80
2019-03-03T09:31:45.194Z,42.50
2019-03-03T09:34:30.786Z,44.47
2019-03-03T09:37:05.662Z,44.33
2019-03-03T09:39:34.712Z,38.80
2019-03-03T09:42:06.898Z,38.37
2019-03-03T09:44:52.767Z,38.87
2019-03-03T09:47:24.683Z,36.67
2019-03-03T09:50:02.308Z,34.83
2019-03-03T09:52:31.369Z,39.00
2019-03-03T09:55:00.424Z,36.30
2019-03-03T09:57:39.432Z,36.40
2019-03-03T10:00:12.155Z,37.50
2019-03-03T10:02:41.209Z,37.00
2019-03-03T10:05:13.352Z,34.50
2019-03-03T10:07:42.464Z,35.83
2019-03-03T10:10:21.266Z,37.77
2019-03-03T10:13:08.358Z,36.47
2019-03-03T10:15:43.391Z,36.17
2019-03-03T10:18:24.574Z,38.63
2019-03-03T10:21:11.882Z,36.77
2019-03-03T10:23:50.050Z,42.80
2019-03-03T10:26:21.850Z,39.13
2019-03-03T10:28:51.018Z,39.23
2019-03-03T10:31:20.124Z,39.73
2019-03-03T10:33:52.350Z,39.53
2019-03-03T10:36:27.398Z,38.33
2019-03-03T10:39:07.258Z,36.90
2019-03-03T10:41:39.434Z,36.53
2019-03-03T10:44:11.270Z,36.67
2019-03-03T10:46:44.568Z,32.07
2019-03-03T10:49:25.797Z,35.00
2019-03-03T10:51:54.896Z,34.67
2019-03-03T10:54:24.022Z,34.13
2019-03-03T10:57:15.697Z,33.60
2019-03-03T10:59:44.926Z,32.00
2019-03-03T11:02:16.841Z,32.47
2019-03-03T11:04:45.779Z,34.20
2019-03-03T11:07:31.443Z,33.43
2019-03-03T11:10:08.002Z,28.80
2019-03-03T11:12:36.931Z,31.17
2019-03-03T11:15:24.331Z,29.93
2019-03-03T11:17:59.226Z,27.60
2019-03-03T11:20:31.628Z,28.47
2019-03-03T11:23:06.594Z,22.47
2019-03-03T11:25:50.627Z,25.97
2019-03-03T11:28:39.474Z,24.63
2019-03-03T11:31:08.799Z,20.90
2019-03-03T11:33:44.315Z,25.53
2019-03-03T11:36:20.078Z,25.97
2019-03-03T11:39:00.544Z,22.17
2019-03-03T11:41:29.553Z,24.27
2019-03-03T11:43:58.608Z,22.70
2019-03-03T11:46:44.851Z,25.57
2019-03-03T11:49:20.037Z,22.43
2019-03-03T11:51:49.125Z,28.37
2019-03-03T11:54:21.521Z,30.50
2019-03-03T11:56:51.992Z,34.87
2019-03-03T11:59:41.185Z,35.37
2019-03-03T12:02:14.712Z,28.67
2019-03-03T12:04:56.570Z,26.53
2019-03-03T12:07:25.158Z,29.83
2019-03-03T12:10:11.179Z,34.63
2019-03-03T12:13:08.864Z,26.60
2019-03-03T12:15:53.577Z,25.93
2019-03-03T12:18:41.931Z,24.57
2019-03-03T12:21:17.224Z,33.30
2019-03-03T12:24:06.881Z,28.33
2019-03-03T12:29:48.020Z,33.23
2019-03-03T12:32:30.819Z,33.23
2019-03-03T12:35:00.022Z,31.83
2019-03-03T12:37:44.619Z,27.83
2019-03-03T12:40:31.815Z,29.50
2019-03-03T12:43:13.037Z,28.20
2019-03-03T12:45:51.151Z,25.70
2019-03-03T12:48:20.162Z,27.70
2019-03-03T12:50:52.071Z,23.97
2019-03-03T12:53:27.427Z,22.27
2019-03-03T12:55:56.440Z,19.97
2019-03-03T12:58:31.537Z,17.00
2019-03-03T13:01:00.673Z,19.23
2019-03-03T13:03:32.766Z,19.33
2019-03-03T13:06:01.794Z,20.30
2019-03-03T13:08:42.777Z,19.00
2019-03-03T13:11:17.639Z,19.13
2019-03-03T13:13:55.288Z,19.33
2019-03-03T13:16:29.541Z,20.57
2019-03-03T13:19:13.232Z,23.37
2019-03-03T13:21:45.115Z,26.93
2019-03-03T13:24:22.872Z,22.13
2019-03-03T13:26:53.573Z,24.10
2019-03-03T13:29:34.649Z,25.37
2019-03-03T13:32:05.650Z,23.03
2019-03-03T13:34:37.517Z,27.03
2019-03-03T13:37:24.758Z,23.90
2019-03-03T13:40:09.924Z,25.17
2019-03-03T13:42:48.673Z,29.73
2019-03-03T13:45:18.303Z,29.60
2019-03-03T13:47:45.786Z,27.97
2019-03-03T13:50:14.471Z,30.40
2019-03-03T13:52:43.076Z,30.63
2019-03-03T13:55:11.143Z,38.63
2019-03-03T13:57:38.578Z,37.03
2019-03-03T14:00:10.781Z,27.03
2019-03-03T14:02:38.202Z,22.73
2019-03-03T14:05:06.609Z,35.97
2019-03-03T14:07:34.241Z,48.83
2019-03-03T14:10:04.834Z,38.63
2019-03-03T14:12:32.405Z,25.57
2019-03-03T14:14:59.796Z,23.37
2019-03-03T14:17:27.360Z,29.87
2019-03-03T14:19:54.958Z,30.43
2019-03-03T14:22:22.471Z,25.17
2019-03-03T14:24:51.766Z,20.50
2019-03-03T14:27:19.231Z,22.37
2019-03-03T14:29:46.699Z,23.23
2019-03-03T14:32:14.210Z,21.93
2019-03-03T14:34:48.817Z,18.77
2019-03-03T14:37:16.671Z,20.03
2019-03-03T14:39:44.194Z,20.57
2019-03-03T14:42:11.642Z,23.43
2019-03-03T14:44:39.307Z,23.07
2019-03-03T14:47:06.773Z,20.37
2019-03-03T14:49:34.323Z,25.20
2019-03-03T14:52:01.969Z,25.87
2019-03-03T14:54:29.456Z,22.43
2019-03-03T14:56:58.101Z,26.77
2019-03-03T14:59:25.538Z,25.10
2019-03-03T15:01:52.988Z,22.77
2019-03-03T15:04:20.450Z,23.33
2019-03-03T15:06:49.609Z,22.10
2019-03-03T15:09:22.184Z,23.97
2019-03-03T15:11:49.916Z,23.77
2019-03-03T15:14:19.314Z,25.73
2019-03-03T15:16:46.702Z,20.40
2019-03-03T15:19:14.169Z,21.00
2019-03-03T15:21:41.603Z,23.10
2019-03-03T15:24:09.060Z,21.03
2019-03-03T15:26:36.627Z,25.53
2019-03-03T15:29:04.130Z,22.10
2019-03-03T15:31:37.791Z,22.53
2019-03-03T15:34:03.644Z,20.63
2019-03-03T15:36:31.069Z,25.47
2019-03-03T15:38:58.490Z,21.47
2019-03-03T15:41:30.339Z,26.47
2019-03-03T15:43:58.896Z,21.50
2019-03-03T15:46:26.522Z,23.90
2019-03-03T15:48:54.170Z,27.10
2019-03-03T15:51:21.755Z,24.50
2019-03-03T15:53:49.252Z,25.40
2019-03-03T15:56:22.351Z,24.37
2019-03-03T15:58:55.687Z,26.20
2019-03-03T16:01:19.011Z,25.00
2019-03-03T16:03:46.508Z,26.23
2019-03-03T16:06:13.899Z,27.50
2019-03-03T16:08:41.251Z,21.13
2019-03-03T16:11:08.686Z,17.37
2019-03-03T16:13:36.191Z,22.90
2019-03-03T16:16:03.680Z,23.20
2019-03-03T16:18:31.125Z,21.43
2019-03-03T16:20:58.668Z,20.27
2019-03-03T16:23:26.088Z,20.40
2019-03-03T16:25:53.802Z,22.13
2019-03-03T16:28:21.304Z,18.17
2019-03-03T16:30:48.731Z,17.83
2019-03-03T16:33:20.452Z,17.43
2019-03-03T16:35:45.332Z,19.07
2019-03-03T16:38:12.677Z,23.67
2019-03-03T16:40:40.184Z,21.97
2019-03-03T16:43:07.684Z,21.57
2019-03-03T16:45:35.071Z,27.13
2019-03-03T16:48:02.468Z,21.47
2019-03-03T16:50:30.213Z,26.33
2019-03-03T16:52:57.546Z,23.63
2019-03-03T16:55:24.982Z,22.67
2019-03-03T16:57:52.560Z,30.13
2019-03-03T17:00:21.576Z,27.93
2019-03-03T17:02:48.913Z,31.73
2019-03-03T17:05:17.220Z,36.10
2019-03-03T17:07:44.857Z,36.57
2019-03-03T17:10:12.320Z,34.70
2019-03-03T17:12:39.763Z,32.73
2019-03-03T17:15:08.804Z,35.43
2019-03-03T17:17:36.207Z,41.67
2019-03-03T17:20:03.927Z,43.63
2019-03-03T17:22:31.374Z,48.70
2019-03-03T17:24:58.772Z,45.03
2019-03-03T17:27:26.127Z,46.53
2019-03-03T17:29:53.527Z,44.60
2019-03-03T17:32:20.871Z,43.30
2019-03-03T17:34:48.368Z,44.03
2019-03-03T17:37:15.782Z,39.57
2019-03-03T17:39:43.192Z,36.13
2019-03-03T17:42:10.614Z,38.77
2019-03-03T17:44:38.064Z,38.27
2019-03-03T17:47:05.457Z,34.80
2019-03-03T17:49:32.863Z,39.30
2019-03-03T17:52:00.598Z,35.57
2019-03-03T17:54:27.993Z,38.60
2019-03-03T17:56:55.385Z,34.13
2019-03-03T17:59:22.946Z,26.37
2019-03-03T18:01:50.361Z,24.03
2019-03-03T18:04:19.220Z,30.47
2019-03-03T18:06:46.575Z,26.90
2019-03-03T18:09:14.027Z,28.37
2019-03-03T18:11:41.989Z,34.30
2019-03-03T18:14:13.002Z,34.70
2019-03-03T18:16:40.396Z,29.90
2019-03-03T18:19:07.868Z,31.43
2019-03-03T18:21:35.301Z,31.77
2019-03-03T18:24:02.770Z,28.57
2019-03-03T18:26:30.188Z,34.73
2019-03-03T18:28:57.584Z,30.37
2019-03-03T18:31:25.033Z,31.57
2019-03-03T18:33:52.470Z,27.80
2019-03-03T18:36:19.913Z,37.27
2019-03-03T18:38:47.277Z,35.77
2019-03-03T18:41:14.628Z,30.50
2019-03-03T18:43:42.149Z,34.90
2019-03-03T18:46:09.637Z,27.87
2019-03-03T18:48:37.080Z,29.17
2019-03-03T18:51:05.045Z,28.33
2019-03-03T18:53:32.500Z,28.13
2019-03-03T18:55:59.988Z,28.80
2019-03-03T18:58:29.010Z,27.87
2019-03-03T19:00:56.394Z,22.87
2019-03-03T19:03:23.716Z,21.73
2019-03-03T19:05:55.695Z,27.20
2019-03-03T19:08:20.185Z,23.83
2019-03-03T19:10:47.652Z,27.00
2019-03-03T19:13:15.149Z,25.03
2019-03-03T19:15:47.107Z,23.27
2019-03-03T19:18:14.685Z,21.70
2019-03-03T19:20:42.136Z,20.67
2019-03-03T19:23:09.542Z,22.57
2019-03-03T19:25:37.027Z,20.43
2019-03-03T19:28:04.463Z,18.97
2019-03-03T19:30:32.159Z,21.23
2019-03-03T19:33:13.510Z,23.37
2019-03-03T19:35:40.834Z,20.83
2019-03-03T19:38:10.093Z,22.17
2019-03-03T19:40:37.689Z,24.27
2019-03-03T19:43:05.194Z,24.87
2019-03-03T19:45:39.749Z,21.83
2019-03-03T19:48:08.893Z,24.47
2019-03-03T19:50:36.219Z,21.23
2019-03-03T19:53:03.819Z,23.20
2019-03-03T19:55:31.262Z,22.33
2019-03-03T19:57:58.822Z,24.87
2019-03-03T20:00:36.744Z,20.60
2019-03-03T20:03:03.256Z,24.30
2019-03-03T20:05:30.734Z,22.07
2019-03-03T20:07:58.226Z,23.83
2019-03-03T20:10:25.739Z,24.20
2019-03-03T20:12:53.194Z,22.57
2019-03-03T20:15:20.662Z,21.37
2019-03-03T20:17:48.103Z,24.33
2019-03-03T20:20:21.396Z,21.93
2019-03-03T20:22:48.790Z,20.97
2019-03-03T20:25:16.180Z,24.00
2019-03-03T20:27:44.083Z,27.07
2019-03-03T20:30:21.113Z,22.23
2019-03-03T20:32:48.602Z,21.80
2019-03-03T20:35:16.245Z,21.13
2019-03-03T20:37:43.705Z,18.20
2019-03-03T20:40:12.752Z,23.27
2019-03-03T20:42:40.297Z,16.87
2019-03-03T20:45:12.367Z,19.43
2019-03-03T20:47:39.662Z,24.70
2019-03-03T20:50:11.448Z,17.60
2019-03-03T20:52:39.402Z,14.50
2019-03-03T20:55:08.484Z,22.77
2019-03-03T20:57:36.514Z,25.97
2019-03-03T21:00:05.615Z,17.40
2019-03-03T21:02:33.043Z,20.77
2019-03-03T21:05:00.577Z,18.27
2019-03-03T21:07:27.987Z,17.90
2019-03-03T21:09:55.418Z,19.97
2019-03-03T21:12:24.523Z,20.03
2019-03-03T21:14:52.032Z,23.13
2019-03-03T21:17:19.459Z,21.77
2019-03-03T21:19:46.922Z,24.43
2019-03-03T21:22:14.500Z,23.43
2019-03-03T21:24:41.886Z,21.13
2019-03-03T21:27:09.427Z,21.23
2019-03-03T21:29:36.716Z,23.07
2019-03-03T21:32:04.191Z,22.70
2019-03-03T21:34:31.614Z,25.80
2019-03-03T21:36:58.937Z,25.47
2019-03-03T21:39:26.357Z,22.40
2019-03-03T21:41:53.773Z,27.30
2019-03-03T21:44:21.188Z,25.17
2019-03-03T21:46:51.719Z,23.57
2019-03-03T21:49:19.322Z,27.63
2019-03-03T21:51:46.788Z,25.43
2019-03-03T21:54:14.121Z,22.60
2019-03-03T21:56:41.525Z,23.30
2019-03-03T21:59:08.896Z,25.33
2019-03-03T22:01:36.226Z,24.63
2019-03-03T22:04:03.671Z,24.83
2019-03-03T22:06:31.131Z,22.37
2019-03-03T22:08:58.612Z,25.73
2019-03-03T22:11:25.967Z,21.87
2019-03-03T22:13:53.405Z,25.33
2019-03-03T22:16:20.830Z,20.77
2019-03-03T22:18:48.376Z,21.10
2019-03-03T22:21:15.808Z,20.50
2019-03-03T22:23:43.307Z,19.43
2019-03-03T22:26:10.826Z,19.67
2019-03-03T22:28:38.187Z,19.37
2019-03-03T22:31:05.647Z,20.77
2019-03-03T22:33:33.093Z,22.33
2019-03-03T22:36:00.517Z,19.30
2019-03-03T22:38:27.943Z,17.70
2019-03-03T22:40:55.365Z,18.07
2019-03-03T22:43:22.734Z,17.07
2019-03-03T22:45:50.250Z,13.10
2019-03-03T22:48:17.715Z,18.23
2019-03-03T22:50:45.175Z,16.47
2019-03-03T22:53:13.049Z,16.83
2019-03-03T22:55:40.622Z,15.87
2019-03-03T22:58:08.217Z,18.23
2019-03-03T23:00:50.634Z,20.80
2019-03-03T23:03:22.757Z,20.90
2019-03-03T23:05:51.822Z,16.00
2019-03-03T23:08:20.834Z,16.23
2019-03-03T23:10:52.892Z,22.63
2019-03-03T23:13:21.951Z,19.73
2019-03-03T23:16:07.475Z,17.90
2019-03-03T23:18:45.775Z,18.23
2019-03-03T23:21:33.219Z,16.50
2019-03-03T23:24:17.643Z,16.20
2019-03-03T23:26:45.187Z,15.50
2019-03-03T23:29:12.697Z,16.80
2019-03-03T23:31:40.187Z,17.37
2019-03-03T23:34:07.679Z,15.47
2019-03-03T23:36:35.235Z,20.50
2019-03-03T23:39:02.727Z,18.27
2019-03-03T23:41:30.193Z,14.40
2019-03-03T23:43:57.642Z,14.73
2019-03-03T23:46:25.159Z,14.07
2019-03-03T23:48:52.611Z,17.87
2019-03-03T23:51:19.963Z,10.93
2019-03-03T23:53:47.469Z,11.43
2019-03-03T23:56:14.993Z,11.67
2019-03-03T23:58:42.529Z,9.87
